College Ward, Utah
Current Conditions -  °F | °C
As of 10:15 AM on Thursday 27 Nov 2014 (Local Time) from KBMC Reporting Station
Scattered Clouds Scattered Clouds  
Wind Chill: 42°   Ceiling: Unl
Heat Index: 45°   Visibility: 10mi
Dew Point: 32°   Wind: 5mph
Humidity: 60%   Direction: 360°N
Pressure: 30.31"   Gusts: NA
Location:  41.645°N, 111.959°W
Report Text: KBMC 271715Z AUTO 36004KT 10SM SCT120 07/00 A3031 RMK AO1 T00711001
Loading
Personal Weather Stations






























Interactive Weather Map New forecast layout! Learn more

10-Day Weather Forecast

Advertisements
Track Severe Weather on mobile